createdAt,value
2023-01-17T00:02:20.683Z,5.05
2023-01-17T00:05:06.066Z,3.58
2023-01-17T00:07:51.870Z,5.43
2023-01-17T00:10:23.098Z,6.28
2023-01-17T00:12:53.007Z,6.40
2023-01-17T00:15:23.293Z,3.40
2023-01-17T00:17:51.737Z,7.13
2023-01-17T00:20:40.002Z,5.95
2023-01-17T00:23:26.794Z,3.20
2023-01-17T00:26:05.188Z,5.95
2023-01-17T00:28:34.207Z,5.50
2023-01-17T00:31:00.970Z,6.43
2023-01-17T00:33:28.024Z,7.28
2023-01-17T00:35:56.054Z,3.92
2023-01-17T00:38:24.628Z,5.03
2023-01-17T00:40:51.495Z,4.85
2023-01-17T00:43:41.267Z,5.03
2023-01-17T00:46:26.957Z,4.38
2023-01-17T00:49:12.668Z,2.70
2023-01-17T00:51:57.972Z,3.97
2023-01-17T00:54:43.497Z,5.60
2023-01-17T00:57:28.874Z,5.80
2023-01-17T01:00:15.347Z,3.17
2023-01-17T01:03:00.777Z,6.00
2023-01-17T01:05:46.510Z,4.15
2023-01-17T01:08:36.764Z,6.22
2023-01-17T01:11:24.662Z,4.13
2023-01-17T01:14:10.132Z,3.50
2023-01-17T01:16:56.745Z,4.70
2023-01-17T01:19:42.640Z,5.15
2023-01-17T01:22:28.571Z,4.25
2023-01-17T01:25:13.729Z,5.65
2023-01-17T01:27:58.787Z,5.45
2023-01-17T01:30:44.097Z,3.60
2023-01-17T01:33:21.013Z,3.33
2023-01-17T01:35:50.765Z,4.53
2023-01-17T01:38:19.257Z,3.65
2023-01-17T01:40:48.940Z,5.88
2023-01-17T01:43:19.688Z,4.68
2023-01-17T01:45:52.204Z,6.63
2023-01-17T01:48:39.257Z,3.55
2023-01-17T01:51:10.225Z,4.30
2023-01-17T01:53:42.025Z,3.85
2023-01-17T01:56:13.701Z,3.72
2023-01-17T01:58:44.876Z,5.68
2023-01-17T02:01:13.138Z,5.13
2023-01-17T02:03:43.612Z,5.68
2023-01-17T02:06:25.818Z,3.92
2023-01-17T02:08:53.798Z,3.28
2023-01-17T02:11:23.181Z,3.78
2023-01-17T02:13:51.267Z,6.25
2023-01-17T02:16:32.390Z,4.78
2023-01-17T02:19:21.703Z,5.93
2023-01-17T02:22:07.207Z,5.97
2023-01-17T02:24:56.812Z,4.97
2023-01-17T02:27:28.471Z,4.80
2023-01-17T02:30:33.248Z,4.80
2023-01-17T02:33:14.376Z,4.07
2023-01-17T02:35:53.790Z,4.25
2023-01-17T02:38:38.082Z,3.97
2023-01-17T02:41:08.586Z,5.68
2023-01-17T02:43:38.325Z,2.83
2023-01-17T02:46:09.648Z,4.95
2023-01-17T02:48:38.487Z,5.32
2023-01-17T02:51:29.861Z,5.07
2023-01-17T02:54:20.810Z,3.33
2023-01-17T02:57:00.458Z,3.05
2023-01-17T02:59:41.721Z,3.30
2023-01-17T03:02:20.967Z,6.32
2023-01-17T03:04:53.486Z,3.05
2023-01-17T03:07:25.418Z,4.32
2023-01-17T03:09:59.508Z,4.78
2023-01-17T03:12:29.892Z,6.15
2023-01-17T03:14:58.189Z,4.35
2023-01-17T03:17:33.549Z,6.90
2023-01-17T03:20:01.249Z,4.80
2023-01-17T03:22:29.025Z,5.47
2023-01-17T03:24:57.056Z,4.10
2023-01-17T03:27:24.995Z,5.32
2023-01-17T03:29:52.979Z,3.85
2023-01-17T03:32:20.682Z,3.35
2023-01-17T03:34:49.848Z,3.80
2023-01-17T03:37:17.607Z,4.22
2023-01-17T03:39:45.759Z,4.10
2023-01-17T03:42:13.511Z,4.55
2023-01-17T03:44:41.447Z,5.45
2023-01-17T03:47:12.033Z,4.53
2023-01-17T03:49:40.790Z,4.10
2023-01-17T03:52:10.111Z,4.82
2023-01-17T03:54:37.900Z,4.53
2023-01-17T03:57:06.209Z,4.22
2023-01-17T03:59:34.233Z,6.15
2023-01-17T04:02:02.360Z,6.28
2023-01-17T04:04:30.407Z,5.90
2023-01-17T04:06:58.124Z,4.07
2023-01-17T04:09:27.558Z,4.53
2023-01-17T04:11:55.449Z,4.38
2023-01-17T04:14:23.316Z,4.53
2023-01-17T04:16:51.327Z,3.13
2023-01-17T04:19:19.450Z,3.58
2023-01-17T04:21:47.761Z,3.88
2023-01-17T04:24:17.816Z,3.58
2023-01-17T04:26:47.637Z,3.33
2023-01-17T04:29:15.539Z,3.85
2023-01-17T04:31:43.775Z,3.03
2023-01-17T04:34:12.001Z,3.38
2023-01-17T04:36:39.968Z,3.00
2023-01-17T04:39:08.293Z,3.97
2023-01-17T04:41:37.231Z,4.00
2023-01-17T04:44:07.035Z,4.90
2023-01-17T04:46:35.211Z,4.90
2023-01-17T04:49:03.433Z,7.20
2023-01-17T04:51:31.362Z,7.75
2023-01-17T04:53:59.321Z,5.55
2023-01-17T04:56:27.212Z,4.93
2023-01-17T04:58:57.528Z,6.40
2023-01-17T05:01:27.091Z,3.92
2023-01-17T05:03:55.072Z,3.88
2023-01-17T05:06:22.817Z,4.55
2023-01-17T05:08:50.830Z,6.97
2023-01-17T05:11:18.927Z,5.15
2023-01-17T05:13:49.261Z,5.70
2023-01-17T05:16:19.421Z,9.35
2023-01-17T05:18:52.435Z,6.88
2023-01-17T05:23:48.212Z,5.22
2023-01-17T05:26:15.999Z,4.10
2023-01-17T05:28:44.024Z,4.10
2023-01-17T05:31:11.990Z,4.20
2023-01-17T05:33:40.067Z,4.93
2023-01-17T05:36:10.374Z,4.70
2023-01-17T05:38:38.583Z,5.03
2023-01-17T05:41:07.092Z,7.82
2023-01-17T05:43:35.156Z,6.70
2023-01-17T05:46:03.185Z,5.32
2023-01-17T05:48:31.558Z,4.13
2023-01-17T05:50:59.847Z,9.40
2023-01-17T05:53:29.317Z,9.63
2023-01-17T05:55:57.726Z,9.95
2023-01-17T05:58:25.893Z,6.45
2023-01-17T06:00:56.233Z,5.35
2023-01-17T06:03:24.359Z,4.85
2023-01-17T06:05:52.262Z,6.07
2023-01-17T06:08:20.462Z,6.93
2023-01-17T06:10:50.070Z,4.97
2023-01-17T06:13:21.861Z,7.00
2023-01-17T06:15:50.321Z,6.03
2023-01-17T06:18:19.772Z,6.32
2023-01-17T06:20:53.162Z,5.75
2023-01-17T06:23:21.231Z,6.30
2023-01-17T06:25:51.426Z,4.70
2023-01-17T06:28:21.849Z,7.63
2023-01-17T06:30:51.565Z,9.68
2023-01-17T06:33:20.578Z,5.40
2023-01-17T06:35:50.621Z,5.10
2023-01-17T06:38:19.059Z,4.68
2023-01-17T06:40:47.885Z,7.93
2023-01-17T06:43:18.131Z,7.25
2023-01-17T06:45:46.205Z,7.28
2023-01-17T06:48:15.520Z,6.50
2023-01-17T06:50:43.872Z,7.72
2023-01-17T06:53:12.123Z,9.10
2023-01-17T06:55:40.597Z,6.95
2023-01-17T06:58:10.255Z,8.23
2023-01-17T07:00:41.079Z,7.22
2023-01-17T07:03:18.620Z,7.32
2023-01-17T07:05:46.780Z,12.05
2023-01-17T07:08:16.846Z,10.35
2023-01-17T07:10:45.919Z,11.18
2023-01-17T07:13:14.702Z,9.25
2023-01-17T07:15:43.929Z,6.18
2023-01-17T07:18:12.992Z,8.68
2023-01-17T07:20:43.869Z,5.55
2023-01-17T07:23:12.503Z,6.95
2023-01-17T07:25:41.204Z,6.82
2023-01-17T07:28:10.055Z,6.10
2023-01-17T07:30:38.191Z,10.18
2023-01-17T07:33:07.496Z,8.57
2023-01-17T07:35:35.617Z,7.25
2023-01-17T07:38:05.747Z,8.18
2023-01-17T07:40:41.545Z,6.50
2023-01-17T07:43:14.420Z,6.63
2023-01-17T07:45:44.523Z,12.23
2023-01-17T07:48:15.629Z,10.45
2023-01-17T07:50:43.901Z,7.72
2023-01-17T07:53:12.723Z,6.45
2023-01-17T07:55:41.274Z,25.42
2023-01-17T07:58:11.371Z,17.02
2023-01-17T08:00:39.465Z,10.35
2023-01-17T08:03:07.406Z,12.40
2023-01-17T08:05:36.818Z,13.73
2023-01-17T08:08:05.492Z,8.70
2023-01-17T08:10:34.501Z,9.07
2023-01-17T08:13:02.474Z,8.13
2023-01-17T08:15:30.467Z,7.75
2023-01-17T08:17:58.671Z,4.18
2023-01-17T08:20:28.137Z,6.57
2023-01-17T08:22:58.135Z,7.43
2023-01-17T08:25:27.093Z,11.68
2023-01-17T08:27:58.678Z,8.55
2023-01-17T08:30:27.518Z,8.38
2023-01-17T08:32:55.647Z,15.05
2023-01-17T08:35:24.397Z,8.23
2023-01-17T08:37:55.922Z,8.88
2023-01-17T08:40:25.919Z,9.52
2023-01-17T08:42:57.712Z,11.18
2023-01-17T08:45:26.032Z,14.20
2023-01-17T08:47:54.693Z,12.63
2023-01-17T08:50:23.067Z,18.73
2023-01-17T08:52:53.343Z,23.45
2023-01-17T08:55:22.038Z,22.77
2023-01-17T08:57:51.557Z,23.10
2023-01-17T09:00:20.629Z,26.45
2023-01-17T09:02:48.751Z,24.45
2023-01-17T09:05:16.665Z,38.08
2023-01-17T09:07:44.820Z,27.60
2023-01-17T09:10:13.909Z,31.63
2023-01-17T09:12:41.936Z,26.35
2023-01-17T09:15:14.811Z,13.25
2023-01-17T09:20:12.083Z,9.82
2023-01-17T09:22:39.924Z,7.40
2023-01-17T09:25:08.795Z,8.75
2023-01-17T09:27:36.624Z,8.20
2023-01-17T09:30:05.601Z,6.22
2023-01-17T09:32:35.258Z,8.38
2023-01-17T09:35:05.521Z,9.20
2023-01-17T09:37:33.596Z,11.13
2023-01-17T09:40:01.349Z,12.70
2023-01-17T09:42:35.799Z,9.18
2023-01-17T09:45:04.410Z,9.75
2023-01-17T09:47:41.655Z,9.60
2023-01-17T09:50:21.896Z,7.00
2023-01-17T09:52:49.829Z,9.85
2023-01-17T09:55:18.866Z,9.23
2023-01-17T09:57:57.579Z,4.40
2023-01-17T10:00:40.635Z,7.20
2023-01-17T10:03:30.985Z,12.88
2023-01-17T10:06:17.513Z,13.75
2023-01-17T10:09:04.801Z,7.75
2023-01-17T10:11:48.147Z,7.07
2023-01-17T10:14:33.553Z,5.95
2023-01-17T10:17:13.545Z,9.63
2023-01-17T10:20:01.568Z,8.75
2023-01-17T10:22:51.270Z,13.32
2023-01-17T10:25:48.064Z,10.45
2023-01-17T10:28:18.258Z,16.77
2023-01-17T10:30:51.117Z,10.70
2023-01-17T10:35:57.144Z,12.02
2023-01-17T10:38:32.596Z,9.50
2023-01-17T10:41:06.399Z,10.25
2023-01-17T10:43:53.887Z,6.25
2023-01-17T10:46:28.594Z,9.45
2023-01-17T10:48:58.275Z,8.20
2023-01-17T10:51:43.998Z,11.85
2023-01-17T10:54:27.903Z,6.85
2023-01-17T10:56:56.022Z,6.13
2023-01-17T10:59:30.595Z,7.78
2023-01-17T11:01:58.481Z,7.15
2023-01-17T11:04:37.507Z,4.68
2023-01-17T11:07:14.431Z,5.57
2023-01-17T11:09:44.315Z,6.45
2023-01-17T11:12:21.990Z,5.47
2023-01-17T11:14:59.842Z,5.75
2023-01-17T11:17:28.941Z,5.63
2023-01-17T11:20:09.322Z,8.50
2023-01-17T11:22:39.095Z,15.88
2023-01-17T11:25:08.351Z,17.75
2023-01-17T11:27:39.666Z,11.90
2023-01-17T11:30:18.108Z,12.80
2023-01-17T11:32:53.970Z,8.57
2023-01-17T11:35:25.810Z,8.05
2023-01-17T11:38:04.662Z,13.77
2023-01-17T11:40:42.859Z,8.13
2023-01-17T11:43:21.090Z,9.23
2023-01-17T11:46:02.940Z,12.02
2023-01-17T11:48:37.520Z,8.80
2023-01-17T11:51:15.289Z,10.93
2023-01-17T11:53:48.390Z,15.10
2023-01-17T11:56:23.463Z,11.07
2023-01-17T11:58:52.471Z,11.88
2023-01-17T12:01:34.870Z,9.40
2023-01-17T12:04:23.042Z,9.57
2023-01-17T12:07:06.388Z,10.02
2023-01-17T12:09:43.898Z,8.45
2023-01-17T12:12:39.995Z,11.43
2023-01-17T12:15:22.361Z,16.15
2023-01-17T12:18:10.933Z,14.88
2023-01-17T12:20:49.495Z,11.00
2023-01-17T12:23:32.611Z,8.93
2023-01-17T12:28:54.659Z,10.98
2023-01-17T12:31:33.666Z,6.85
2023-01-17T12:34:15.779Z,5.80
2023-01-17T12:36:49.623Z,10.95
2023-01-17T12:39:22.804Z,5.10
2023-01-17T12:41:58.203Z,6.60
2023-01-17T12:44:39.605Z,9.07
2023-01-17T12:47:08.208Z,7.75
2023-01-17T12:49:43.477Z,8.70
2023-01-17T12:52:19.525Z,9.73
2023-01-17T12:54:52.724Z,7.40
2023-01-17T12:57:26.864Z,8.18
2023-01-17T13:00:03.011Z,9.40
2023-01-17T13:02:39.067Z,10.23
2023-01-17T13:05:15.329Z,6.95
2023-01-17T13:07:50.386Z,13.40
2023-01-17T13:10:35.411Z,7.97
2023-01-17T13:13:20.429Z,10.15
2023-01-17T13:15:50.512Z,8.77
2023-01-17T13:18:23.340Z,12.52
2023-01-17T13:21:04.923Z,11.90
2023-01-17T13:23:45.818Z,9.02
2023-01-17T13:26:27.861Z,10.55
2023-01-17T13:29:06.241Z,11.95
2023-01-17T13:31:48.347Z,8.98
2023-01-17T13:34:35.183Z,7.67
2023-01-17T13:37:32.553Z,12.57
2023-01-17T13:40:30.100Z,10.43
2023-01-17T13:43:00.953Z,8.10
2023-01-17T13:45:32.732Z,8.40
2023-01-17T13:48:32.206Z,5.82
2023-01-17T13:51:03.753Z,7.82
2023-01-17T13:53:55.038Z,7.80
2023-01-17T13:56:37.101Z,5.10
2023-01-17T13:59:30.687Z,5.18
2023-01-17T14:02:00.352Z,4.95
2023-01-17T14:05:03.681Z,5.85
2023-01-17T14:07:35.035Z,7.53
2023-01-17T14:10:03.264Z,5.35
2023-01-17T14:12:40.049Z,6.55
2023-01-17T14:15:22.559Z,4.85
2023-01-17T14:17:58.857Z,7.22
2023-01-17T14:20:53.892Z,5.20
2023-01-17T14:23:56.374Z,10.48
2023-01-17T14:26:43.054Z,8.60
2023-01-17T14:29:59.353Z,5.90
2023-01-17T14:32:32.649Z,6.57
2023-01-17T14:35:03.016Z,5.30
2023-01-17T14:37:47.591Z,6.18
2023-01-17T14:40:25.997Z,6.95
2023-01-17T14:43:02.167Z,6.53
2023-01-17T14:45:33.132Z,5.53
2023-01-17T14:48:04.241Z,4.43
2023-01-17T14:50:37.692Z,3.45
2023-01-17T14:53:17.431Z,5.75
2023-01-17T14:55:55.510Z,5.30
2023-01-17T14:58:25.104Z,5.57
2023-01-17T15:00:56.415Z,4.30
2023-01-17T15:03:24.524Z,4.47
2023-01-17T15:05:55.964Z,6.78
2023-01-17T15:08:26.951Z,11.85
2023-01-17T15:11:00.209Z,4.93
2023-01-17T15:13:43.776Z,5.53
2023-01-17T15:16:21.091Z,12.63
2023-01-17T15:18:49.182Z,4.70
2023-01-17T15:21:20.762Z,4.63
2023-01-17T15:23:52.555Z,5.78
2023-01-17T15:26:23.303Z,9.02
2023-01-17T15:28:52.004Z,3.28
2023-01-17T15:31:26.645Z,12.07
2023-01-17T15:33:57.965Z,4.78
2023-01-17T15:36:33.143Z,10.38
2023-01-17T15:39:03.425Z,3.45
2023-01-17T15:41:34.878Z,2.33
2023-01-17T15:44:03.569Z,3.47
2023-01-17T15:46:39.333Z,7.15
2023-01-17T15:49:17.856Z,3.05
2023-01-17T15:51:56.572Z,5.47
2023-01-17T15:54:35.298Z,5.53
2023-01-17T15:57:18.145Z,5.50
2023-01-17T15:59:49.030Z,5.50
2023-01-17T16:02:43.189Z,5.78
2023-01-17T16:05:34.709Z,14.35
2023-01-17T16:08:30.230Z,7.25
2023-01-17T16:11:02.151Z,4.70
2023-01-17T16:13:31.804Z,5.60
2023-01-17T16:16:27.122Z,4.45
2023-01-17T16:19:01.531Z,6.82
2023-01-17T16:21:30.982Z,5.47
2023-01-17T16:24:00.943Z,5.05
2023-01-17T16:26:30.116Z,4.53
2023-01-17T16:28:58.133Z,7.13
2023-01-17T16:31:26.462Z,6.75
2023-01-17T16:33:54.697Z,5.88
2023-01-17T16:36:23.150Z,7.90
2023-01-17T16:38:52.389Z,8.80
2023-01-17T16:41:23.127Z,6.32
2023-01-17T16:44:00.015Z,9.95
2023-01-17T16:46:30.070Z,6.63
2023-01-17T16:49:00.747Z,5.63
2023-01-17T16:51:29.529Z,4.25
2023-01-17T16:53:58.250Z,7.68
2023-01-17T16:56:27.754Z,5.43
2023-01-17T16:58:56.926Z,6.05
2023-01-17T17:01:25.434Z,7.32
2023-01-17T17:03:53.802Z,6.30
2023-01-17T17:06:21.955Z,13.30
2023-01-17T17:08:51.035Z,5.63
2023-01-17T17:11:22.005Z,14.05
2023-01-17T17:13:52.325Z,44.17
2023-01-17T17:16:23.180Z,31.75
2023-01-17T17:18:57.351Z,13.48
2023-01-17T17:21:26.018Z,7.78
2023-01-17T17:23:57.438Z,9.57
2023-01-17T17:26:27.720Z,8.70
2023-01-17T17:28:58.664Z,9.13
2023-01-17T17:31:27.917Z,10.35
2023-01-17T17:33:59.829Z,8.80
2023-01-17T17:36:28.095Z,10.65
2023-01-17T17:38:59.046Z,9.00
2023-01-17T17:41:29.664Z,11.30
2023-01-17T17:44:01.209Z,11.07
2023-01-17T17:46:31.104Z,8.93
2023-01-17T17:49:01.011Z,8.85
2023-01-17T17:51:31.666Z,9.35
2023-01-17T17:54:02.696Z,7.47
2023-01-17T17:56:33.033Z,7.55
2023-01-17T17:59:03.887Z,6.22
2023-01-17T18:01:32.121Z,7.07
2023-01-17T18:04:03.561Z,14.20
2023-01-17T18:06:32.323Z,11.43
2023-01-17T18:09:00.347Z,16.75
2023-01-17T18:11:30.550Z,11.55
2023-01-17T18:14:03.652Z,8.98
2023-01-17T18:16:35.593Z,10.02
2023-01-17T18:19:05.174Z,10.77
2023-01-17T18:21:36.796Z,9.98
2023-01-17T18:24:10.934Z,12.05
2023-01-17T18:26:41.892Z,8.07
2023-01-17T18:29:15.092Z,8.85
2023-01-17T18:31:44.976Z,8.82
2023-01-17T18:34:15.383Z,6.90
2023-01-17T18:36:45.338Z,8.40
2023-01-17T18:39:15.232Z,7.53
2023-01-17T18:41:43.473Z,7.75
2023-01-17T18:44:13.730Z,7.78
2023-01-17T18:46:43.936Z,10.95
2023-01-17T18:49:16.390Z,10.27
2023-01-17T18:51:47.677Z,8.48
2023-01-17T18:54:16.331Z,7.97
2023-01-17T18:56:44.400Z,10.18
2023-01-17T18:59:18.154Z,12.27
2023-01-17T19:01:47.406Z,8.80
2023-01-17T19:04:17.953Z,8.82
2023-01-17T19:06:49.764Z,8.00
2023-01-17T19:09:19.249Z,9.77
2023-01-17T19:11:48.263Z,9.95
2023-01-17T19:14:18.574Z,9.43
2023-01-17T19:16:47.097Z,10.00
2023-01-17T19:19:17.063Z,9.70
2023-01-17T19:21:45.195Z,8.15
2023-01-17T19:24:15.189Z,11.77
2023-01-17T19:26:44.514Z,9.60
2023-01-17T19:29:13.468Z,7.75
2023-01-17T19:31:44.854Z,9.45
2023-01-17T19:34:16.116Z,8.43
2023-01-17T19:36:44.718Z,8.75
2023-01-17T19:39:13.257Z,10.73
2023-01-17T19:41:44.480Z,10.05
2023-01-17T19:44:14.933Z,12.55
2023-01-17T19:46:46.191Z,8.68
2023-01-17T19:49:16.718Z,13.93
2023-01-17T19:51:45.208Z,12.95
2023-01-17T19:54:15.418Z,11.60
2023-01-17T19:56:43.742Z,10.40
2023-01-17T19:59:13.761Z,12.13
2023-01-17T20:01:42.847Z,10.55
2023-01-17T20:04:13.421Z,9.65
2023-01-17T20:06:42.676Z,12.20
2023-01-17T20:09:10.875Z,10.18
2023-01-17T20:11:42.811Z,10.82
2023-01-17T20:14:15.784Z,12.75
2023-01-17T20:19:14.312Z,7.43
2023-01-17T20:21:43.110Z,11.30
2023-01-17T20:24:13.693Z,8.82
2023-01-17T20:26:42.195Z,7.97
2023-01-17T20:29:13.791Z,11.93
2023-01-17T20:31:43.013Z,10.52
2023-01-17T20:34:13.600Z,9.95
2023-01-17T20:36:42.914Z,9.77
2023-01-17T20:39:14.475Z,11.35
2023-01-17T20:41:43.706Z,12.38
2023-01-17T20:44:13.976Z,10.32
2023-01-17T20:46:42.148Z,9.90
2023-01-17T20:49:14.696Z,11.75
2023-01-17T20:51:45.152Z,9.75
2023-01-17T20:54:14.931Z,7.50
2023-01-17T20:56:43.589Z,9.23
2023-01-17T20:59:14.635Z,8.77
2023-01-17T21:01:43.683Z,11.68
2023-01-17T21:04:12.972Z,7.95
2023-01-17T21:06:41.941Z,8.93
2023-01-17T21:09:13.252Z,9.98
2023-01-17T21:11:41.013Z,11.80
2023-01-17T21:14:08.763Z,8.13
2023-01-17T21:16:37.090Z,9.02
2023-01-17T21:19:05.086Z,11.60
2023-01-17T21:21:32.897Z,13.88
2023-01-17T21:24:00.785Z,11.98
2023-01-17T21:26:30.180Z,10.20
2023-01-17T21:29:00.354Z,11.05
2023-01-17T21:31:30.195Z,10.18
2023-01-17T21:33:59.948Z,13.10
2023-01-17T21:36:29.484Z,10.65
2023-01-17T21:38:59.057Z,9.98
2023-01-17T21:41:31.207Z,12.35
2023-01-17T21:44:00.698Z,10.98
2023-01-17T21:46:29.494Z,10.68
2023-01-17T21:48:57.967Z,11.32
2023-01-17T21:51:46.697Z,13.50
2023-01-17T21:54:14.676Z,14.40
2023-01-17T21:57:01.723Z,11.07
2023-01-17T21:59:32.265Z,10.85
2023-01-17T22:02:00.385Z,14.20
2023-01-17T22:04:29.540Z,10.40
2023-01-17T22:06:57.510Z,12.98
2023-01-17T22:09:25.470Z,11.15
2023-01-17T22:11:54.787Z,11.90
2023-01-17T22:14:22.679Z,12.75
2023-01-17T22:16:50.603Z,10.15
2023-01-17T22:19:18.650Z,8.68
2023-01-17T22:21:46.542Z,9.07
2023-01-17T22:24:16.883Z,15.18
2023-01-17T22:26:44.827Z,9.48
2023-01-17T22:29:17.059Z,11.68
2023-01-17T22:31:45.662Z,10.85
2023-01-17T22:34:14.046Z,10.50
2023-01-17T22:36:42.897Z,13.13
2023-01-17T22:39:11.729Z,10.95
2023-01-17T22:41:39.895Z,9.38
2023-01-17T22:44:08.609Z,9.93
2023-01-17T22:46:39.351Z,9.98
2023-01-17T22:49:08.626Z,9.82
2023-01-17T22:51:36.684Z,9.63
2023-01-17T22:54:05.226Z,13.63
2023-01-17T22:56:34.690Z,8.43
2023-01-17T22:59:03.044Z,11.73
2023-01-17T23:01:32.902Z,10.93
2023-01-17T23:04:04.537Z,8.98
2023-01-17T23:06:36.415Z,10.75
2023-01-17T23:09:07.374Z,8.55
2023-01-17T23:11:40.815Z,11.38
2023-01-17T23:14:11.284Z,9.63
2023-01-17T23:16:54.315Z,11.10
2023-01-17T23:19:24.619Z,13.40
2023-01-17T23:22:11.602Z,11.77
2023-01-17T23:24:43.266Z,9.65
2023-01-17T23:27:30.639Z,8.00
2023-01-17T23:29:58.653Z,10.32
2023-01-17T23:32:26.938Z,11.32
2023-01-17T23:34:56.375Z,10.73
2023-01-17T23:37:51.103Z,11.18
2023-01-17T23:40:19.587Z,8.55
2023-01-17T23:43:05.537Z,10.57
2023-01-17T23:45:35.994Z,8.20
2023-01-17T23:48:05.651Z,9.10
2023-01-17T23:50:34.961Z,11.57
2023-01-17T23:53:06.999Z,8.88
2023-01-17T23:55:36.449Z,12.13
2023-01-17T23:58:04.489Z,8.60
